sensor_id;sensor_type;location;lat;lon;timestamp;pressure;altitude;pressure_sealevel;temperature;humidity
77723;BME280;67811;42.656;23.394;2024-02-15T00:02:37;95456.56;;;2.99;63.58
77723;BME280;67811;42.656;23.394;2024-02-15T00:06:42;95454.66;;;3.01;63.21
77723;BME280;67811;42.656;23.394;2024-02-15T00:10:47;95456.13;;;2.94;63.81
77723;BME280;67811;42.656;23.394;2024-02-15T00:14:53;95454.34;;;2.95;63.32
77723;BME280;67811;42.656;23.394;2024-02-15T00:18:58;95464.81;;;2.95;63.25
77723;BME280;67811;42.656;23.394;2024-02-15T00:23:04;95460.91;;;2.89;63.29
77723;BME280;67811;42.656;23.394;2024-02-15T00:27:09;95462.06;;;2.96;63.49
77723;BME280;67811;42.656;23.394;2024-02-15T00:31:14;95470.19;;;2.93;63.67
77723;BME280;67811;42.656;23.394;2024-02-15T00:35:19;95460.69;;;2.92;63.35
77723;BME280;67811;42.656;23.394;2024-02-15T00:39:25;95464.22;;;2.91;63.15
77723;BME280;67811;42.656;23.394;2024-02-15T00:43:34;95470.94;;;2.84;63.89
77723;BME280;67811;42.656;23.394;2024-02-15T00:47:39;95468.91;;;2.87;64.03
77723;BME280;67811;42.656;23.394;2024-02-15T00:51:45;95466.44;;;2.86;63.57
77723;BME280;67811;42.656;23.394;2024-02-15T00:55:51;95459.25;;;2.88;63.70
77723;BME280;67811;42.656;23.394;2024-02-15T00:59:56;95460.47;;;2.84;63.69
77723;BME280;67811;42.656;23.394;2024-02-15T01:04:02;95470.13;;;2.83;63.71
77723;BME280;67811;42.656;23.394;2024-02-15T01:08:07;95472.72;;;2.83;63.75
77723;BME280;67811;42.656;23.394;2024-02-15T01:12:12;95466.97;;;2.89;63.73
77723;BME280;67811;42.656;23.394;2024-02-15T01:16:17;95464.50;;;2.88;63.43
77723;BME280;67811;42.656;23.394;2024-02-15T01:20:23;95454.28;;;2.85;63.35
77723;BME280;67811;42.656;23.394;2024-02-15T01:24:28;95464.28;;;2.80;63.19
77723;BME280;67811;42.656;23.394;2024-02-15T01:28:33;95467.63;;;2.82;63.67
77723;BME280;67811;42.656;23.394;2024-02-15T01:32:38;95448.88;;;2.77;63.09
77723;BME280;67811;42.656;23.394;2024-02-15T01:36:44;95467.19;;;2.77;63.75
77723;BME280;67811;42.656;23.394;2024-02-15T01:40:52;95467.31;;;2.75;63.80
77723;BME280;67811;42.656;23.394;2024-02-15T01:44:57;95456.84;;;2.75;63.46
77723;BME280;67811;42.656;23.394;2024-02-15T01:49:03;95459.13;;;2.69;63.41
77723;BME280;67811;42.656;23.394;2024-02-15T01:53:09;95458.44;;;2.67;63.87
77723;BME280;67811;42.656;23.394;2024-02-15T01:57:16;95467.69;;;2.71;63.81
77723;BME280;67811;42.656;23.394;2024-02-15T02:01:21;95457.22;;;2.71;63.61
77723;BME280;67811;42.656;23.394;2024-02-15T02:05:27;95458.06;;;2.71;63.62
77723;BME280;67811;42.656;23.394;2024-02-15T02:09:33;95460.69;;;2.71;63.73
77723;BME280;67811;42.656;23.394;2024-02-15T02:13:38;95459.72;;;2.72;64.07
77723;BME280;67811;42.656;23.394;2024-02-15T02:17:48;95465.91;;;2.71;63.74
77723;BME280;67811;42.656;23.394;2024-02-15T02:21:54;95475.78;;;2.68;64.09
77723;BME280;67811;42.656;23.394;2024-02-15T02:25:59;95468.44;;;2.61;63.73
77723;BME280;67811;42.656;23.394;2024-02-15T02:30:08;95474.63;;;2.60;63.98
77723;BME280;67811;42.656;23.394;2024-02-15T02:34:17;95481.91;;;2.57;63.83
77723;BME280;67811;42.656;23.394;2024-02-15T02:38:22;95479.41;;;2.55;64.23
77723;BME280;67811;42.656;23.394;2024-02-15T02:42:27;95488.09;;;2.56;64.03
77723;BME280;67811;42.656;23.394;2024-02-15T02:46:32;95481.78;;;2.58;63.90
77723;BME280;67811;42.656;23.394;2024-02-15T02:50:38;95490.72;;;2.56;64.40
77723;BME280;67811;42.656;23.394;2024-02-15T02:54:43;95498.44;;;2.57;64.18
77723;BME280;67811;42.656;23.394;2024-02-15T02:58:48;95501.03;;;2.57;64.48
77723;BME280;67811;42.656;23.394;2024-02-15T03:02:53;95501.31;;;2.96;68.38
77723;BME280;67811;42.656;23.394;2024-02-15T03:06:59;95500.31;;;2.87;63.80
77723;BME280;67811;42.656;23.394;2024-02-15T03:11:04;95497.00;;;2.64;63.94
77723;BME280;67811;42.656;23.394;2024-02-15T03:15:09;95489.66;;;2.58;64.30
77723;BME280;67811;42.656;23.394;2024-02-15T03:19:15;95490.84;;;2.54;64.46
77723;BME280;67811;42.656;23.394;2024-02-15T03:23:20;95498.38;;;2.48;64.41
77723;BME280;67811;42.656;23.394;2024-02-15T03:27:25;95491.25;;;2.38;64.79
77723;BME280;67811;42.656;23.394;2024-02-15T03:31:31;95512.34;;;2.26;65.68
77723;BME280;67811;42.656;23.394;2024-02-15T03:35:37;95496.22;;;2.21;65.62
77723;BME280;67811;42.656;23.394;2024-02-15T03:39:42;95492.38;;;2.25;65.36
77723;BME280;67811;42.656;23.394;2024-02-15T03:43:47;95497.13;;;2.20;66.17
77723;BME280;67811;42.656;23.394;2024-02-15T03:47:53;95498.59;;;2.13;65.72
77723;BME280;67811;42.656;23.394;2024-02-15T03:51:58;95490.41;;;2.06;66.04
77723;BME280;67811;42.656;23.394;2024-02-15T03:56:04;95496.25;;;2.09;66.44
77723;BME280;67811;42.656;23.394;2024-02-15T04:00:09;95495.97;;;2.13;66.15
77723;BME280;67811;42.656;23.394;2024-02-15T04:04:15;95493.72;;;2.08;66.15
77723;BME280;67811;42.656;23.394;2024-02-15T04:08:20;95499.31;;;2.15;67.22
77723;BME280;67811;42.656;23.394;2024-02-15T04:12:25;95506.59;;;2.00;66.57
77723;BME280;67811;42.656;23.394;2024-02-15T04:16:30;95494.81;;;2.05;66.23
77723;BME280;67811;42.656;23.394;2024-02-15T04:20:36;95503.97;;;2.00;66.32
77723;BME280;67811;42.656;23.394;2024-02-15T04:24:44;95507.09;;;1.94;66.61
77723;BME280;67811;42.656;23.394;2024-02-15T04:28:49;95515.75;;;1.94;66.80
77723;BME280;67811;42.656;23.394;2024-02-15T04:32:54;95513.34;;;2.02;66.77
77723;BME280;67811;42.656;23.394;2024-02-15T04:37:00;95514.91;;;2.05;66.76
77723;BME280;67811;42.656;23.394;2024-02-15T04:41:05;95514.06;;;2.04;66.42
77723;BME280;67811;42.656;23.394;2024-02-15T04:45:10;95525.84;;;1.99;66.86
77723;BME280;67811;42.656;23.394;2024-02-15T04:49:15;95527.72;;;1.97;66.88
77723;BME280;67811;42.656;23.394;2024-02-15T04:53:21;95540.44;;;2.01;66.21
77723;BME280;67811;42.656;23.394;2024-02-15T04:57:26;95546.75;;;1.99;66.54
77723;BME280;67811;42.656;23.394;2024-02-15T05:01:31;95542.84;;;1.93;66.70
77723;BME280;67811;42.656;23.394;2024-02-15T05:05:36;95548.41;;;1.89;67.05
77723;BME280;67811;42.656;23.394;2024-02-15T05:09:42;95551.88;;;1.89;67.14
77723;BME280;67811;42.656;23.394;2024-02-15T05:13:48;95543.41;;;1.97;66.99
77723;BME280;67811;42.656;23.394;2024-02-15T05:17:53;95560.66;;;1.99;66.83
77723;BME280;67811;42.656;23.394;2024-02-15T05:21:58;95552.56;;;1.91;67.25
77723;BME280;67811;42.656;23.394;2024-02-15T05:26:04;95566.13;;;1.85;67.50
77723;BME280;67811;42.656;23.394;2024-02-15T05:30:09;95561.84;;;1.84;67.47
77723;BME280;67811;42.656;23.394;2024-02-15T05:34:15;95573.00;;;1.86;67.35
77723;BME280;67811;42.656;23.394;2024-02-15T05:38:20;95576.75;;;2.27;70.32
77723;BME280;67811;42.656;23.394;2024-02-15T05:42:25;95574.34;;;2.35;66.75
77723;BME280;67811;42.656;23.394;2024-02-15T05:46:30;95580.94;;;2.07;67.15
77723;BME280;67811;42.656;23.394;2024-02-15T05:50:36;95568.72;;;1.96;66.95
77723;BME280;67811;42.656;23.394;2024-02-15T05:54:41;95574.78;;;1.97;66.70
77723;BME280;67811;42.656;23.394;2024-02-15T05:58:46;95580.00;;;1.97;67.00
77723;BME280;67811;42.656;23.394;2024-02-15T06:02:51;95596.28;;;2.00;67.24
77723;BME280;67811;42.656;23.394;2024-02-15T06:06:57;95613.03;;;2.09;67.11
77723;BME280;67811;42.656;23.394;2024-02-15T06:11:03;95605.91;;;2.11;66.60
77723;BME280;67811;42.656;23.394;2024-02-15T06:15:09;95620.75;;;2.10;66.59
77723;BME280;67811;42.656;23.394;2024-02-15T06:19:14;95620.97;;;2.07;66.83
77723;BME280;67811;42.656;23.394;2024-02-15T06:23:20;95626.56;;;2.03;66.70
77723;BME280;67811;42.656;23.394;2024-02-15T06:27:25;95621.72;;;2.09;66.76
77723;BME280;67811;42.656;23.394;2024-02-15T06:31:31;95626.19;;;2.07;66.43
77723;BME280;67811;42.656;23.394;2024-02-15T06:35:36;95625.50;;;2.05;66.95
77723;BME280;67811;42.656;23.394;2024-02-15T06:39:42;95632.75;;;2.02;67.07
77723;BME280;67811;42.656;23.394;2024-02-15T06:43:47;95644.41;;;2.09;66.55
77723;BME280;67811;42.656;23.394;2024-02-15T06:47:53;95627.28;;;2.16;66.45
77723;BME280;67811;42.656;23.394;2024-02-15T06:51:58;95631.66;;;2.27;66.57
77723;BME280;67811;42.656;23.394;2024-02-15T06:56:03;95624.28;;;2.32;66.45
77723;BME280;67811;42.656;23.394;2024-02-15T07:00:09;95632.94;;;2.44;65.82
77723;BME280;67811;42.656;23.394;2024-02-15T07:04:15;95628.53;;;2.55;65.55
77723;BME280;67811;42.656;23.394;2024-02-15T07:08:20;95618.28;;;2.96;64.18
77723;BME280;67811;42.656;23.394;2024-02-15T07:12:25;95618.47;;;3.36;62.36
77723;BME280;67811;42.656;23.394;2024-02-15T07:16:31;95626.34;;;3.04;63.25
77723;BME280;67811;42.656;23.394;2024-02-15T07:20:36;95631.09;;;3.10;63.26
77723;BME280;67811;42.656;23.394;2024-02-15T07:24:41;95627.88;;;3.06;63.42
77723;BME280;67811;42.656;23.394;2024-02-15T07:28:46;95633.00;;;3.08;62.91
77723;BME280;67811;42.656;23.394;2024-02-15T07:32:52;95626.94;;;3.28;62.53
77723;BME280;67811;42.656;23.394;2024-02-15T07:36:57;95623.03;;;3.23;62.19
77723;BME280;67811;42.656;23.394;2024-02-15T07:41:02;95622.75;;;3.58;61.65
77723;BME280;67811;42.656;23.394;2024-02-15T07:45:08;95614.72;;;4.51;58.55
77723;BME280;67811;42.656;23.394;2024-02-15T07:49:13;95611.72;;;6.09;53.82
77723;BME280;67811;42.656;23.394;2024-02-15T07:53:18;95605.78;;;6.90;50.96
77723;BME280;67811;42.656;23.394;2024-02-15T07:57:24;95600.84;;;8.26;47.29
77723;BME280;67811;42.656;23.394;2024-02-15T08:01:29;95590.03;;;8.88;45.61
77723;BME280;67811;42.656;23.394;2024-02-15T08:05:34;95595.84;;;8.91;44.98
77723;BME280;67811;42.656;23.394;2024-02-15T08:09:39;95591.44;;;9.24;44.63
77723;BME280;67811;42.656;23.394;2024-02-15T08:13:45;95593.94;;;9.50;44.28
77723;BME280;67811;42.656;23.394;2024-02-15T08:17:50;95587.34;;;10.74;40.98
77723;BME280;67811;42.656;23.394;2024-02-15T08:21:56;95582.53;;;10.38;40.81
77723;BME280;67811;42.656;23.394;2024-02-15T08:26:01;95589.84;;;10.20;41.82
77723;BME280;67811;42.656;23.394;2024-02-15T08:30:08;95593.44;;;10.82;39.98
77723;BME280;67811;42.656;23.394;2024-02-15T08:34:13;95589.94;;;10.51;40.65
77723;BME280;67811;42.656;23.394;2024-02-15T08:38:19;95584.75;;;11.20;38.91
77723;BME280;67811;42.656;23.394;2024-02-15T08:42:24;95581.69;;;10.46;40.08
77723;BME280;67811;42.656;23.394;2024-02-15T08:46:29;95589.13;;;10.81;39.78
77723;BME280;67811;42.656;23.394;2024-02-15T08:50:34;95577.34;;;11.38;38.62
77723;BME280;67811;42.656;23.394;2024-02-15T08:54:40;95569.63;;;11.28;38.17
77723;BME280;67811;42.656;23.394;2024-02-15T08:58:45;95566.59;;;11.54;38.46
77723;BME280;67811;42.656;23.394;2024-02-15T09:02:50;95566.78;;;11.30;38.24
77723;BME280;67811;42.656;23.394;2024-02-15T09:06:55;95574.81;;;11.22;38.90
77723;BME280;67811;42.656;23.394;2024-02-15T09:11:01;95572.16;;;11.45;39.28
77723;BME280;67811;42.656;23.394;2024-02-15T09:15:09;95562.66;;;12.03;37.86
77723;BME280;67811;42.656;23.394;2024-02-15T09:19:15;95565.91;;;11.38;38.06
77723;BME280;67811;42.656;23.394;2024-02-15T09:23:20;95561.88;;;12.32;36.42
77723;BME280;67811;42.656;23.394;2024-02-15T09:27:25;95563.88;;;12.00;36.87
77723;BME280;67811;42.656;23.394;2024-02-15T09:31:30;95557.94;;;12.28;35.21
77723;BME280;67811;42.656;23.394;2024-02-15T09:35:35;95566.06;;;12.41;36.26
77723;BME280;67811;42.656;23.394;2024-02-15T09:39:41;95554.19;;;12.37;35.99
77723;BME280;67811;42.656;23.394;2024-02-15T09:43:46;95551.31;;;13.04;35.30
77723;BME280;67811;42.656;23.394;2024-02-15T09:47:52;95545.47;;;13.30;34.85
77723;BME280;67811;42.656;23.394;2024-02-15T09:51:58;95552.41;;;14.02;33.52
77723;BME280;67811;42.656;23.394;2024-02-15T09:56:04;95540.94;;;14.36;32.73
77723;BME280;67811;42.656;23.394;2024-02-15T10:00:10;95544.50;;;13.87;33.96
77723;BME280;67811;42.656;23.394;2024-02-15T10:04:16;95535.78;;;14.00;32.65
77723;BME280;67811;42.656;23.394;2024-02-15T10:08:21;95533.06;;;13.93;33.12
77723;BME280;67811;42.656;23.394;2024-02-15T10:12:37;95528.72;;;14.20;32.54
77723;BME280;67811;42.656;23.394;2024-02-15T10:16:42;95519.94;;;13.36;34.08
77723;BME280;67811;42.656;23.394;2024-02-15T10:20:57;95515.78;;;13.83;33.55
77723;BME280;67811;42.656;23.394;2024-02-15T10:25:13;95505.47;;;14.84;31.52
77723;BME280;67811;42.656;23.394;2024-02-15T10:29:19;95502.22;;;14.95;32.88
77723;BME280;67811;42.656;23.394;2024-02-15T10:33:28;95491.75;;;15.00;31.47
77723;BME280;67811;42.656;23.394;2024-02-15T10:37:34;95487.38;;;14.72;31.86
77723;BME280;67811;42.656;23.394;2024-02-15T10:41:39;95482.22;;;14.64;44.87
77723;BME280;67811;42.656;23.394;2024-02-15T10:45:45;95470.03;;;16.60;36.84
77723;BME280;67811;42.656;23.394;2024-02-15T10:49:50;95488.59;;;16.49;33.72
77723;BME280;67811;42.656;23.394;2024-02-15T10:54:02;95473.91;;;16.65;36.49
77723;BME280;67811;42.656;23.394;2024-02-15T10:58:07;95467.91;;;16.69;34.64
77723;BME280;67811;42.656;23.394;2024-02-15T11:02:34;95471.97;;;16.33;36.65
77723;BME280;67811;42.656;23.394;2024-02-15T11:06:43;95463.19;;;16.65;34.52
77723;BME280;67811;42.656;23.394;2024-02-15T11:10:48;95459.03;;;17.20;33.60
77723;BME280;67811;42.656;23.394;2024-02-15T11:14:54;95454.19;;;18.77;33.06
77723;BME280;67811;42.656;23.394;2024-02-15T11:18:59;95453.22;;;19.32;32.34
77723;BME280;67811;42.656;23.394;2024-02-15T11:23:04;95455.41;;;18.26;30.96
77723;BME280;67811;42.656;23.394;2024-02-15T11:27:10;95453.84;;;18.74;32.93
77723;BME280;67811;42.656;23.394;2024-02-15T11:31:52;95453.47;;;18.15;36.35
77723;BME280;67811;42.656;23.394;2024-02-15T11:36:30;95452.72;;;17.58;28.18
77723;BME280;67811;42.656;23.394;2024-02-15T11:44:47;95445.66;;;16.82;29.25
77723;BME280;67811;42.656;23.394;2024-02-15T11:48:53;95449.84;;;16.58;39.87
77723;BME280;67811;42.656;23.394;2024-02-15T11:53:02;95455.16;;;16.26;29.84
77723;BME280;67811;42.656;23.394;2024-02-15T11:57:08;95435.13;;;15.77;32.57
77723;BME280;67811;42.656;23.394;2024-02-15T12:01:13;95433.59;;;17.79;37.31
77723;BME280;67811;42.656;23.394;2024-02-15T12:05:18;95434.47;;;15.82;31.30
77723;BME280;67811;42.656;23.394;2024-02-15T12:09:24;95426.28;;;15.70;31.25
77723;BME280;67811;42.656;23.394;2024-02-15T12:13:29;95426.06;;;15.78;31.31
77723;BME280;67811;42.656;23.394;2024-02-15T12:17:35;95428.50;;;15.60;30.86
77723;BME280;67811;42.656;23.394;2024-02-15T12:21:40;95427.44;;;16.01;31.10
77723;BME280;67811;42.656;23.394;2024-02-15T12:25:51;95420.25;;;16.53;29.61
77723;BME280;67811;42.656;23.394;2024-02-15T12:29:57;95423.16;;;18.14;32.67
77723;BME280;67811;42.656;23.394;2024-02-15T12:34:03;95417.47;;;18.04;32.58
77723;BME280;67811;42.656;23.394;2024-02-15T12:38:09;95411.00;;;17.94;37.64
77723;BME280;67811;42.656;23.394;2024-02-15T12:42:16;95412.34;;;17.03;31.18
77723;BME280;67811;42.656;23.394;2024-02-15T12:46:22;95401.22;;;16.74;32.79
77723;BME280;67811;42.656;23.394;2024-02-15T12:50:29;95392.38;;;15.77;33.74
77723;BME280;67811;42.656;23.394;2024-02-15T12:54:35;95403.47;;;16.77;34.79
77723;BME280;67811;42.656;23.394;2024-02-15T12:58:40;95402.22;;;15.11;31.81
77723;BME280;67811;42.656;23.394;2024-02-15T13:02:49;95404.31;;;14.95;32.31
77723;BME280;67811;42.656;23.394;2024-02-15T13:06:54;95408.44;;;14.37;33.34
77723;BME280;67811;42.656;23.394;2024-02-15T13:10:59;95409.53;;;13.66;34.74
77723;BME280;67811;42.656;23.394;2024-02-15T13:15:05;95393.88;;;14.39;33.55
77723;BME280;67811;42.656;23.394;2024-02-15T13:19:10;95399.78;;;14.28;33.21
77723;BME280;67811;42.656;23.394;2024-02-15T13:23:15;95397.50;;;13.70;34.64
77723;BME280;67811;42.656;23.394;2024-02-15T13:27:21;95404.41;;;13.58;34.99
77723;BME280;67811;42.656;23.394;2024-02-15T13:31:26;95398.66;;;12.84;36.16
77723;BME280;67811;42.656;23.394;2024-02-15T13:35:32;95407.75;;;13.17;35.74
77723;BME280;67811;42.656;23.394;2024-02-15T13:39:37;95401.56;;;13.66;35.34
77723;BME280;67811;42.656;23.394;2024-02-15T13:43:43;95399.34;;;13.70;34.90
77723;BME280;67811;42.656;23.394;2024-02-15T13:47:49;95396.03;;;13.33;35.89
77723;BME280;67811;42.656;23.394;2024-02-15T13:51:54;95404.56;;;13.29;35.87
77723;BME280;67811;42.656;23.394;2024-02-15T13:55:59;95402.91;;;13.00;36.26
77723;BME280;67811;42.656;23.394;2024-02-15T14:00:05;95402.34;;;12.61;36.61
77723;BME280;67811;42.656;23.394;2024-02-15T14:04:12;95400.88;;;12.37;37.05
77723;BME280;67811;42.656;23.394;2024-02-15T14:08:17;95400.03;;;12.80;36.87
77723;BME280;67811;42.656;23.394;2024-02-15T14:12:22;95401.66;;;12.17;37.87
77723;BME280;67811;42.656;23.394;2024-02-15T14:16:28;95401.50;;;12.03;38.47
77723;BME280;67811;42.656;23.394;2024-02-15T14:20:33;95398.00;;;12.03;38.29
77723;BME280;67811;42.656;23.394;2024-02-15T14:24:38;95396.84;;;11.91;38.49
77723;BME280;67811;42.656;23.394;2024-02-15T14:28:44;95404.50;;;11.26;39.95
77723;BME280;67811;42.656;23.394;2024-02-15T14:32:49;95405.78;;;11.30;39.90
77723;BME280;67811;42.656;23.394;2024-02-15T14:36:54;95403.09;;;11.83;41.00
77723;BME280;67811;42.656;23.394;2024-02-15T14:40:59;95403.31;;;11.73;39.78
77723;BME280;67811;42.656;23.394;2024-02-15T14:45:05;95402.31;;;11.74;39.67
77723;BME280;67811;42.656;23.394;2024-02-15T14:49:10;95410.38;;;11.66;39.75
77723;BME280;67811;42.656;23.394;2024-02-15T14:53:16;95397.97;;;11.14;40.79
77723;BME280;67811;42.656;23.394;2024-02-15T14:57:21;95400.56;;;10.85;44.05
77723;BME280;67811;42.656;23.394;2024-02-15T15:01:27;95410.50;;;11.05;43.18
77723;BME280;67811;42.656;23.394;2024-02-15T15:05:32;95404.94;;;11.30;42.87
77723;BME280;67811;42.656;23.394;2024-02-15T15:09:39;95405.19;;;10.68;41.85
77723;BME280;67811;42.656;23.394;2024-02-15T15:13:44;95414.56;;;10.24;42.43
77723;BME280;67811;42.656;23.394;2024-02-15T15:17:50;95415.72;;;9.35;44.66
77723;BME280;67811;42.656;23.394;2024-02-15T15:21:55;95415.69;;;9.52;44.70
77723;BME280;67811;42.656;23.394;2024-02-15T15:26:00;95411.69;;;9.56;44.95
77723;BME280;67811;42.656;23.394;2024-02-15T15:30:06;95416.34;;;9.54;44.97
77723;BME280;67811;42.656;23.394;2024-02-15T15:34:12;95422.13;;;9.49;45.26
77723;BME280;67811;42.656;23.394;2024-02-15T15:38:17;95417.34;;;9.44;45.23
77723;BME280;67811;42.656;23.394;2024-02-15T15:42:22;95429.09;;;9.42;45.10
77723;BME280;67811;42.656;23.394;2024-02-15T15:46:27;95430.75;;;9.43;45.69
77723;BME280;67811;42.656;23.394;2024-02-15T15:50:33;95439.53;;;9.27;46.31
77723;BME280;67811;42.656;23.394;2024-02-15T15:54:40;95450.31;;;9.09;47.08
77723;BME280;67811;42.656;23.394;2024-02-15T15:58:45;95453.13;;;8.75;48.51
77723;BME280;67811;42.656;23.394;2024-02-15T16:02:50;95453.78;;;8.69;49.50
77723;BME280;67811;42.656;23.394;2024-02-15T16:06:56;95460.84;;;8.60;48.91
77723;BME280;67811;42.656;23.394;2024-02-15T16:11:01;95467.97;;;8.68;50.26
77723;BME280;67811;42.656;23.394;2024-02-15T16:15:10;95479.06;;;8.96;49.81
77723;BME280;67811;42.656;23.394;2024-02-15T16:19:16;95480.22;;;9.02;48.17
77723;BME280;67811;42.656;23.394;2024-02-15T16:23:21;95481.19;;;9.09;50.45
77723;BME280;67811;42.656;23.394;2024-02-15T16:27:26;95494.56;;;9.32;53.63
77723;BME280;67811;42.656;23.394;2024-02-15T16:31:32;95493.59;;;9.16;48.17
77723;BME280;67811;42.656;23.394;2024-02-15T16:35:37;95505.16;;;9.23;54.25
77723;BME280;67811;42.656;23.394;2024-02-15T16:39:42;95506.81;;;9.24;51.36
77723;BME280;67811;42.656;23.394;2024-02-15T16:43:47;95510.91;;;9.43;52.15
77723;BME280;67811;42.656;23.394;2024-02-15T16:47:53;95507.97;;;9.22;50.46
77723;BME280;67811;42.656;23.394;2024-02-15T16:51:59;95518.50;;;8.73;51.12
77723;BME280;67811;42.656;23.394;2024-02-15T16:56:04;95518.34;;;8.83;53.58
77723;BME280;67811;42.656;23.394;2024-02-15T17:00:10;95524.28;;;8.77;52.05
77723;BME280;67811;42.656;23.394;2024-02-15T17:04:15;95532.88;;;8.95;50.58
77723;BME280;67811;42.656;23.394;2024-02-15T17:08:20;95528.75;;;8.76;56.41
77723;BME280;67811;42.656;23.394;2024-02-15T17:12:25;95531.75;;;9.06;56.47
77723;BME280;67811;42.656;23.394;2024-02-15T17:16:31;95533.44;;;9.23;52.82
77723;BME280;67811;42.656;23.394;2024-02-15T17:20:36;95537.88;;;9.14;52.92
77723;BME280;67811;42.656;23.394;2024-02-15T17:24:41;95534.25;;;9.15;51.86
77723;BME280;67811;42.656;23.394;2024-02-15T17:28:47;95540.69;;;9.21;54.71
77723;BME280;67811;42.656;23.394;2024-02-15T17:32:52;95543.31;;;9.21;55.31
77723;BME280;67811;42.656;23.394;2024-02-15T17:36:57;95556.88;;;9.10;54.05
77723;BME280;67811;42.656;23.394;2024-02-15T17:41:03;95556.72;;;9.03;52.41
77723;BME280;67811;42.656;23.394;2024-02-15T17:45:09;95566.44;;;8.36;49.40
77723;BME280;67811;42.656;23.394;2024-02-15T17:49:15;95565.00;;;7.81;50.33
77723;BME280;67811;42.656;23.394;2024-02-15T17:53:20;95565.41;;;7.43;51.57
77723;BME280;67811;42.656;23.394;2024-02-15T17:57:25;95573.41;;;7.15;52.92
77723;BME280;67811;42.656;23.394;2024-02-15T18:01:30;95566.41;;;6.88;53.43
77723;BME280;67811;42.656;23.394;2024-02-15T18:05:36;95575.19;;;6.79;53.86
77723;BME280;67811;42.656;23.394;2024-02-15T18:09:41;95573.44;;;6.70;53.64
77723;BME280;67811;42.656;23.394;2024-02-15T18:13:47;95575.78;;;6.55;53.91
77723;BME280;67811;42.656;23.394;2024-02-15T18:17:52;95583.28;;;6.50;54.86
77723;BME280;67811;42.656;23.394;2024-02-15T18:21:57;95584.41;;;6.47;54.75
77723;BME280;67811;42.656;23.394;2024-02-15T18:26:03;95584.47;;;6.38;55.50
77723;BME280;67811;42.656;23.394;2024-02-15T18:30:09;95588.53;;;6.32;55.79
77723;BME280;67811;42.656;23.394;2024-02-15T18:34:14;95597.94;;;6.25;55.59
77723;BME280;67811;42.656;23.394;2024-02-15T18:38:20;95589.53;;;6.21;55.95
77723;BME280;67811;42.656;23.394;2024-02-15T18:42:25;95582.06;;;6.17;55.68
77723;BME280;67811;42.656;23.394;2024-02-15T18:46:30;95592.47;;;6.08;56.58
77723;BME280;67811;42.656;23.394;2024-02-15T18:50:36;95601.50;;;6.06;56.16
77723;BME280;67811;42.656;23.394;2024-02-15T18:54:41;95597.66;;;6.00;56.23
77723;BME280;67811;42.656;23.394;2024-02-15T18:58:46;95600.94;;;6.02;55.67
77723;BME280;67811;42.656;23.394;2024-02-15T19:02:52;95608.44;;;5.97;56.39
77723;BME280;67811;42.656;23.394;2024-02-15T19:06:57;95603.63;;;5.83;56.24
77723;BME280;67811;42.656;23.394;2024-02-15T19:11:02;95601.03;;;5.73;56.69
77723;BME280;67811;42.656;23.394;2024-02-15T19:15:08;95600.06;;;5.65;57.02
77723;BME280;67811;42.656;23.394;2024-02-15T19:19:13;95602.84;;;5.53;57.60
77723;BME280;67811;42.656;23.394;2024-02-15T19:23:18;95599.94;;;5.57;58.12
77723;BME280;67811;42.656;23.394;2024-02-15T19:27:23;95604.09;;;5.59;58.18
77723;BME280;67811;42.656;23.394;2024-02-15T19:31:29;95603.00;;;5.52;57.37
77723;BME280;67811;42.656;23.394;2024-02-15T19:35:34;95601.03;;;5.54;57.70
77723;BME280;67811;42.656;23.394;2024-02-15T19:39:39;95614.75;;;5.48;58.31
77723;BME280;67811;42.656;23.394;2024-02-15T19:43:44;95612.28;;;5.37;59.41
77723;BME280;67811;42.656;23.394;2024-02-15T19:47:50;95619.47;;;5.44;58.74
77723;BME280;67811;42.656;23.394;2024-02-15T19:51:55;95615.88;;;5.36;59.32
77723;BME280;67811;42.656;23.394;2024-02-15T19:56:00;95620.47;;;5.34;59.58
77723;BME280;67811;42.656;23.394;2024-02-15T20:00:06;95610.34;;;5.19;59.21
77723;BME280;67811;42.656;23.394;2024-02-15T20:04:11;95615.19;;;5.05;59.36
77723;BME280;67811;42.656;23.394;2024-02-15T20:08:17;95616.56;;;4.99;59.39
77723;BME280;67811;42.656;23.394;2024-02-15T20:12:22;95621.66;;;4.81;60.04
77723;BME280;67811;42.656;23.394;2024-02-15T20:16:28;95625.00;;;4.73;60.96
77723;BME280;67811;42.656;23.394;2024-02-15T20:20:33;95623.34;;;4.92;60.60
77723;BME280;67811;42.656;23.394;2024-02-15T20:24:38;95631.84;;;4.45;61.22
77723;BME280;67811;42.656;23.394;2024-02-15T20:28:44;95632.28;;;3.89;63.44
77723;BME280;67811;42.656;23.394;2024-02-15T20:32:49;95633.31;;;3.77;64.01
77723;BME280;67811;42.656;23.394;2024-02-15T20:36:54;95622.59;;;3.80;63.68
77723;BME280;67811;42.656;23.394;2024-02-15T20:40:59;95634.50;;;3.94;62.75
77723;BME280;67811;42.656;23.394;2024-02-15T20:45:05;95629.72;;;3.68;63.42
77723;BME280;67811;42.656;23.394;2024-02-15T20:49:11;95633.47;;;3.76;63.68
77723;BME280;67811;42.656;23.394;2024-02-15T20:53:16;95624.31;;;3.70;64.75
77723;BME280;67811;42.656;23.394;2024-02-15T20:57:21;95628.38;;;3.84;64.94
77723;BME280;67811;42.656;23.394;2024-02-15T21:01:27;95625.91;;;3.61;64.55
77723;BME280;67811;42.656;23.394;2024-02-15T21:05:32;95631.06;;;3.42;64.77
77723;BME280;67811;42.656;23.394;2024-02-15T21:09:38;95630.09;;;3.43;65.33
77723;BME280;67811;42.656;23.394;2024-02-15T21:13:43;95636.09;;;3.02;65.68
77723;BME280;67811;42.656;23.394;2024-02-15T21:17:48;95636.94;;;2.70;66.64
77723;BME280;67811;42.656;23.394;2024-02-15T21:21:53;95634.25;;;2.49;67.37
77723;BME280;67811;42.656;23.394;2024-02-15T21:25:59;95638.78;;;2.36;67.75
77723;BME280;67811;42.656;23.394;2024-02-15T21:30:04;95637.50;;;2.08;68.75
77723;BME280;67811;42.656;23.394;2024-02-15T21:34:10;95637.88;;;2.03;69.21
77723;BME280;67811;42.656;23.394;2024-02-15T21:38:15;95640.47;;;2.15;69.65
77723;BME280;67811;42.656;23.394;2024-02-15T21:42:20;95635.09;;;2.38;69.11